Time;durP1;ratioP1;P1;durP2;ratioP2;P2;SDS_P1;SDS_P2;PMS_P1;PMS_P2;Temp;Humidity;BMP_temperature;BMP_pressure;BME280_temperature;BME280_humidity;BME280_pressure;Samples;Min_cycle;Max_cycle;Signal;HPM_P1;HPM_P2
2022/11/22 00:01:50;;;;;;;2.50;1.50;;;7.10;99.90;;;;;;5106356;27;20191;-39
2022/11/22 00:04:15;;;;;;;2.27;1.50;;;7.10;99.90;;;;;;5103282;27;20275;-41
2022/11/22 00:06:41;;;;;;;3.80;1.80;;;7.10;99.90;;;;;;5088981;28;20396;-39
2022/11/22 00:09:06;;;;;;;1.53;1.33;;;7.20;99.90;;;;;;5092703;28;20221;-37
2022/11/22 00:11:32;;;;;;;2.03;1.30;;;7.30;99.90;;;;;;5111949;27;20627;-39
2022/11/22 00:13:58;;;;;;;2.30;1.20;;;7.20;99.90;;;;;;5103950;27;20756;-38
2022/11/22 00:16:23;;;;;;;2.90;1.60;;;7.20;99.90;;;;;;5088477;28;20215;-39
2022/11/22 00:18:49;;;;;;;2.67;1.67;;;7.30;99.90;;;;;;5095956;28;20202;-40
2022/11/22 00:21:15;;;;;;;3.90;2.17;;;7.10;99.90;;;;;;5108589;28;20298;-38
2022/11/22 00:23:40;;;;;;;2.73;1.80;;;7.20;99.90;;;;;;5110624;27;20204;-36
2022/11/22 00:26:10;;;;;;;5.63;1.50;;;7.30;99.90;;;;;;5091952;27;20672;-38
2022/11/22 00:28:37;;;;;;;5.33;1.83;;;7.10;99.90;;;;;;5088075;28;20271;-39
2022/11/22 00:31:03;;;;;;;3.67;1.70;;;7.20;99.90;;;;;;5088185;28;20426;-40
2022/11/22 00:33:29;;;;;;;3.50;1.60;;;7.30;99.90;;;;;;5087415;28;20422;-40
2022/11/22 00:35:55;;;;;;;4.77;2.13;;;7.10;99.90;;;;;;5088387;28;20227;-40
2022/11/22 00:38:20;;;;;;;2.40;1.67;;;7.20;99.90;;;;;;5088461;28;20642;-41
2022/11/22 00:40:46;;;;;;;3.20;1.90;;;7.20;99.90;;;;;;5087912;28;20559;-39
2022/11/22 00:43:12;;;;;;;3.27;1.73;;;7.30;99.90;;;;;;5086661;28;20657;-39
2022/11/22 00:45:40;;;;;;;2.80;1.70;;;7.10;99.90;;;;;;5087986;28;20556;-39
2022/11/22 00:48:06;;;;;;;2.87;1.60;;;7.20;99.90;;;;;;5088316;28;20246;-40
2022/11/22 00:50:32;;;;;;;4.40;2.23;;;7.30;99.90;;;;;;5087695;28;20454;-40
2022/11/22 00:52:57;;;;;;;2.67;1.80;;;7.10;99.90;;;;;;5086762;28;20370;-39
2022/11/22 00:55:23;;;;;;;2.60;1.57;;;7.10;99.90;;;;;;5087642;28;20185;-40
2022/11/22 00:57:48;;;;;;;3.37;2.03;;;7.20;99.90;;;;;;5087813;28;20219;-40
2022/11/22 01:00:15;;;;;;;2.90;1.83;;;7.20;99.90;;;;;;5087609;28;20195;-41
2022/11/22 01:02:40;;;;;;;2.20;1.70;;;7.30;99.90;;;;;;5087884;28;20198;-39
2022/11/22 01:05:06;;;;;;;2.40;2.03;;;7.10;99.90;;;;;;5090081;28;21030;-40
2022/11/22 01:07:32;;;;;;;2.43;1.97;;;7.20;99.90;;;;;;5095599;28;20250;-40
2022/11/22 01:09:57;;;;;;;2.43;1.90;;;7.30;99.90;;;;;;5087512;28;20500;-39
2022/11/22 01:12:23;;;;;;;2.63;1.87;;;7.20;99.90;;;;;;5087750;28;20180;-41
2022/11/22 01:14:49;;;;;;;2.63;1.63;;;7.20;99.90;;;;;;5088019;28;20245;-40
2022/11/22 01:17:14;;;;;;;2.07;1.63;;;7.20;99.90;;;;;;5088154;28;20181;-40
2022/11/22 01:19:40;;;;;;;2.33;1.70;;;7.30;99.90;;;;;;5102617;28;20180;-40
2022/11/22 01:22:06;;;;;;;3.67;2.23;;;7.20;99.90;;;;;;5106719;28;20508;-41
2022/11/22 01:24:31;;;;;;;2.10;1.70;;;7.30;99.90;;;;;;5106274;28;20199;-40
2022/11/22 01:26:57;;;;;;;5.30;1.97;;;7.30;99.90;;;;;;5086149;28;20223;-39
2022/11/22 01:29:23;;;;;;;2.93;1.83;;;7.40;99.90;;;;;;5087159;28;20197;-41
2022/11/22 01:31:49;;;;;;;6.50;1.87;;;7.20;99.90;;;;;;5091488;28;20199;-38
2022/11/22 01:34:14;;;;;;;2.33;2.07;;;7.30;99.90;;;;;;5090647;28;20708;-39
2022/11/22 01:36:40;;;;;;;2.50;2.00;;;7.30;99.90;;;;;;5091693;28;20217;-38
2022/11/22 01:39:06;;;;;;;3.80;2.17;;;7.20;99.90;;;;;;5091498;28;20728;-41
2022/11/22 01:41:31;;;;;;;2.80;1.80;;;7.30;99.90;;;;;;5091369;28;20287;-37
2022/11/22 01:43:57;;;;;;;3.87;2.10;;;7.40;99.90;;;;;;5091744;28;20212;-39
2022/11/22 01:46:33;;;;;;;2.13;1.67;;;7.40;99.90;;;;;;5091562;28;20205;-40
2022/11/22 01:49:09;;;;;;;4.20;2.20;;;7.30;99.90;;;;;;5091481;28;20241;-41
2022/11/22 01:51:39;;;;;;;2.80;2.27;;;7.30;99.90;;;;;;5091207;28;20433;-41
2022/11/22 01:54:13;;;;;;;3.27;2.57;;;7.20;99.90;;;;;;5091301;28;20421;-38
2022/11/22 01:56:43;;;;;;;2.70;1.90;;;7.30;99.90;;;;;;5091578;28;20429;-38
2022/11/22 01:59:13;;;;;;;4.97;2.53;;;7.40;99.90;;;;;;5091135;28;20430;-40
2022/11/22 02:01:39;;;;;;;1.90;1.70;;;7.60;99.90;;;;;;5091021;28;20418;-37
2022/11/22 02:04:07;;;;;;;3.47;1.97;;;7.40;99.90;;;;;;5091209;28;20477;-41
2022/11/22 02:06:46;;;;;;;2.20;1.90;;;7.50;99.90;;;;;;5090768;28;20254;-39
2022/11/22 02:09:12;;;;;;;3.20;2.60;;;7.60;99.90;;;;;;5090875;28;20442;-40
2022/11/22 02:11:44;;;;;;;3.77;2.10;;;7.50;99.90;;;;;;5091032;28;20480;-40
2022/11/22 02:14:11;;;;;;;2.93;2.20;;;7.50;99.90;;;;;;5090937;28;20765;-39
2022/11/22 02:16:39;;;;;;;3.70;2.30;;;7.50;99.90;;;;;;5089542;28;20418;-37
2022/11/22 02:19:11;;;;;;;4.37;1.80;;;7.70;99.90;;;;;;5092357;28;20979;-38
2022/11/22 02:21:36;;;;;;;2.97;2.13;;;7.50;99.90;;;;;;5091140;28;20447;-39
2022/11/22 02:24:20;;;;;;;4.37;2.10;;;7.80;99.90;;;;;;5100810;27;20452;-40
2022/11/22 02:26:46;;;;;;;6.57;2.33;;;7.60;99.90;;;;;;5130307;27;20668;-40
2022/11/22 02:29:12;;;;;;;4.07;2.10;;;7.50;99.90;;;;;;5129960;27;20419;-38
2022/11/22 02:31:41;;;;;;;4.93;2.13;;;7.50;99.90;;;;;;5131560;27;20172;-38
2022/11/22 02:34:11;;;;;;;2.90;2.07;;;7.70;99.90;;;;;;5130994;27;20405;-38
2022/11/22 02:36:47;;;;;;;3.77;2.40;;;7.40;99.90;;;;;;5131717;27;20408;-38
2022/11/22 02:39:16;;;;;;;4.33;1.97;;;7.70;99.90;;;;;;5131238;27;20967;-40
2022/11/22 02:41:43;;;;;;;3.87;2.10;;;7.50;99.90;;;;;;5129560;27;20991;-40
2022/11/22 02:44:10;;;;;;;3.30;2.00;;;7.60;99.90;;;;;;5131427;27;20428;-40
2022/11/22 02:47:02;;;;;;;5.30;2.20;;;7.50;99.90;;;;;;5131662;27;20467;-39
2022/11/22 02:49:28;;;;;;;3.40;2.00;;;7.50;99.90;;;;;;5131058;27;20409;-41
2022/11/22 02:51:53;;;;;;;4.63;2.20;;;7.60;99.90;;;;;;5131718;27;20419;-41
2022/11/22 02:54:19;;;;;;;7.30;2.50;;;7.60;99.90;;;;;;5131579;27;20195;-41
2022/11/22 02:56:45;;;;;;;3.60;2.23;;;7.60;99.90;;;;;;5131031;27;20179;-43
2022/11/22 02:59:11;;;;;;;3.20;1.73;;;7.60;99.90;;;;;;5130944;27;20243;-43
2022/11/22 03:01:37;;;;;;;5.80;2.20;;;7.60;99.90;;;;;;5131201;27;20412;-41
2022/11/22 03:04:03;;;;;;;3.83;2.37;;;7.70;99.90;;;;;;5130961;27;20962;-42
2022/11/22 03:06:29;;;;;;;3.83;2.10;;;7.70;99.90;;;;;;5129658;27;20970;-39
2022/11/22 03:08:54;;;;;;;2.90;1.97;;;7.70;99.90;;;;;;5129500;27;20511;-41
2022/11/22 03:11:20;;;;;;;8.53;2.70;;;7.60;99.90;;;;;;5130893;27;20206;-42
2022/11/22 03:13:46;;;;;;;4.27;2.03;;;7.70;99.90;;;;;;5130714;27;20209;-40
2022/11/22 03:16:11;;;;;;;2.70;2.10;;;7.80;99.90;;;;;;5130976;27;20210;-37
2022/11/22 03:18:37;;;;;;;5.67;2.67;;;7.70;99.90;;;;;;5124037;27;20175;-39
2022/11/22 03:21:07;;;;;;;4.30;2.30;;;7.70;99.90;;;;;;5110218;28;20255;-40
2022/11/22 03:23:33;;;;;;;6.83;2.60;;;7.70;99.90;;;;;;5110875;27;20515;-41
2022/11/22 03:25:58;;;;;;;4.27;2.10;;;7.70;99.90;;;;;;5130611;27;20469;-38
2022/11/22 03:28:25;;;;;;;6.50;2.23;;;7.70;99.90;;;;;;5130325;27;20416;-41
2022/11/22 03:30:51;;;;;;;4.63;2.10;;;7.60;99.90;;;;;;5130479;27;20175;-41
2022/11/22 03:33:17;;;;;;;7.87;2.10;;;7.80;99.90;;;;;;5129631;27;20408;-40
2022/11/22 03:35:42;;;;;;;4.27;3.00;;;7.80;99.90;;;;;;5130414;27;20793;-38
2022/11/22 03:38:08;;;;;;;3.90;2.17;;;7.90;99.90;;;;;;5130695;27;20179;-40
2022/11/22 03:40:34;;;;;;;5.97;2.47;;;8.10;99.90;;;;;;5129743;27;20242;-39
2022/11/22 03:43:01;;;;;;;6.97;2.57;;;7.80;99.90;;;;;;5128779;27;20178;-41
2022/11/22 03:45:28;;;;;;;5.40;3.00;;;7.90;99.90;;;;;;5130332;27;20186;-40
2022/11/22 03:47:55;;;;;;;4.70;2.23;;;7.80;99.90;;;;;;5130536;27;20528;-39
2022/11/22 03:50:21;;;;;;;7.27;2.50;;;7.90;99.90;;;;;;5129914;27;20413;-39
2022/11/22 03:52:47;;;;;;;4.30;2.47;;;7.80;99.90;;;;;;5128871;27;20397;-41
2022/11/22 03:55:13;;;;;;;5.83;2.50;;;7.90;99.90;;;;;;5129929;27;20416;-41
2022/11/22 03:57:38;;;;;;;4.33;2.53;;;7.80;99.90;;;;;;5129931;27;20179;-40
2022/11/22 04:00:05;;;;;;;4.80;2.47;;;7.80;99.90;;;;;;5129735;27;20327;-40
2022/11/22 04:02:31;;;;;;;5.60;2.43;;;7.80;99.90;;;;;;5129701;27;20591;-41
2022/11/22 04:04:56;;;;;;;8.20;2.60;;;7.80;99.90;;;;;;5130306;27;20415;-39
2022/11/22 04:07:22;;;;;;;10.00;2.83;;;7.70;99.90;;;;;;5129634;27;20656;-40
2022/11/22 04:09:48;;;;;;;5.03;2.50;;;7.90;99.90;;;;;;5128305;27;20183;-40
2022/11/22 04:12:13;;;;;;;9.33;2.70;;;7.90;99.90;;;;;;5129654;27;20202;-41
2022/11/22 04:23:06;;;;;;;5.20;1.90;;;7.70;99.90;;;;;;5109081;28;20532;-39
2022/11/22 04:25:35;;;;;;;5.47;1.73;;;7.70;99.90;;;;;;5126963;27;20461;-40
2022/11/22 04:28:02;;;;;;;4.57;2.07;;;7.70;99.90;;;;;;5129489;27;20456;-41
2022/11/22 04:33:13;;;;;;;3.50;1.70;;;7.80;99.90;;;;;;5127710;27;20440;-41
2022/11/22 04:35:40;;;;;;;4.83;2.20;;;7.70;99.90;;;;;;5129367;27;20455;-40
2022/11/22 04:38:06;;;;;;;4.67;2.03;;;7.80;99.90;;;;;;5129305;27;20463;-37
2022/11/22 04:40:33;;;;;;;5.20;2.10;;;7.70;99.90;;;;;;5129422;27;20444;-39
2022/11/22 04:45:43;;;;;;;6.60;2.10;;;7.70;99.90;;;;;;5129325;27;20460;-40
2022/11/22 04:48:11;;;;;;;6.43;2.23;;;7.70;99.90;;;;;;5129557;27;20486;-39
2022/11/22 04:53:22;;;;;;;7.10;2.20;;;7.60;99.90;;;;;;5129156;27;20909;-39
2022/11/22 04:55:48;;;;;;;6.43;2.20;;;7.90;99.90;;;;;;5129187;27;20421;-41
2022/11/22 04:58:14;;;;;;;5.63;1.73;;;7.80;99.90;;;;;;5129148;27;20927;-38
2022/11/22 05:00:40;;;;;;;5.67;2.10;;;7.80;99.90;;;;;;5128723;27;20179;-37
2022/11/22 05:03:06;;;;;;;5.40;2.67;;;7.60;99.90;;;;;;5128739;27;20425;-42
2022/11/22 05:05:36;;;;;;;8.00;2.23;;;7.40;99.90;;;;;;5128747;27;20229;-39
2022/11/22 05:08:03;;;;;;;7.10;1.77;;;7.60;99.90;;;;;;5128718;27;20448;-40
2022/11/22 05:10:55;;;;;;;5.07;1.80;;;7.60;99.90;;;;;;5128744;27;20404;-39
2022/11/22 05:13:15;;;;;;;7.80;2.07;;;7.50;99.90;;;;;;5128577;27;20777;-40
2022/11/22 05:15:41;;;;;;;8.20;2.30;;;7.60;99.90;;;;;;5128892;27;20444;-40
2022/11/22 05:18:06;;;;;;;6.00;2.17;;;7.60;99.90;;;;;;5125250;28;20838;-40
2022/11/22 05:20:32;;;;;;;9.70;2.53;;;7.80;99.90;;;;;;5107954;28;20661;-39
2022/11/22 05:25:42;;;;;;;5.43;2.50;;;7.50;99.90;;;;;;5127760;28;20555;-39
2022/11/22 05:28:07;;;;;;;4.07;1.90;;;7.50;99.90;;;;;;5127302;28;20460;-40
2022/11/22 05:30:33;;;;;;;5.03;1.80;;;7.60;99.90;;;;;;5127325;28;20179;-41
2022/11/22 05:32:59;;;;;;;3.77;2.20;;;7.60;99.90;;;;;;5128061;27;20179;-41
2022/11/22 05:35:24;;;;;;;3.30;1.63;;;7.40;99.90;;;;;;5110105;28;20171;-39
2022/11/22 05:37:50;;;;;;;5.93;1.83;;;7.50;99.90;;;;;;5128606;27;20196;-37
2022/11/22 05:40:15;;;;;;;6.03;2.00;;;7.60;99.90;;;;;;5128732;27;20181;-38
2022/11/22 05:42:41;;;;;;;14.63;1.97;;;7.40;99.90;;;;;;5128261;27;20217;-38
2022/11/22 05:45:07;;;;;;;5.70;1.83;;;7.50;99.90;;;;;;5128587;27;20663;-40
2022/11/22 05:47:35;;;;;;;7.10;1.90;;;7.40;99.90;;;;;;5128286;27;20207;-38
2022/11/22 05:50:01;;;;;;;7.30;1.70;;;7.40;99.90;;;;;;5108239;27;20516;-40
2022/11/22 05:52:27;;;;;;;5.07;2.07;;;7.30;99.90;;;;;;5107938;28;20414;-39
2022/11/22 05:54:52;;;;;;;7.10;1.80;;;7.40;99.90;;;;;;5107387;28;20477;-39
2022/11/22 05:57:18;;;;;;;8.40;2.20;;;7.40;99.90;;;;;;5106304;28;20192;-39
2022/11/22 05:59:44;;;;;;;2.80;2.03;;;7.30;99.90;;;;;;5106167;28;20558;-38
2022/11/22 06:02:10;;;;;;;8.40;2.20;;;7.40;99.90;;;;;;5107778;28;20184;-40
2022/11/22 06:04:35;;;;;;;6.57;2.37;;;7.30;99.90;;;;;;5107687;28;20190;-39
2022/11/22 06:07:01;;;;;;;3.97;1.63;;;7.30;99.90;;;;;;5107660;28;20219;-40
2022/11/22 06:09:27;;;;;;;5.23;2.20;;;7.40;99.90;;;;;;5107557;28;20504;-39
2022/11/22 06:11:52;;;;;;;5.23;1.93;;;7.30;99.90;;;;;;5106526;28;20172;-40
2022/11/22 06:14:18;;;;;;;5.07;1.90;;;7.40;99.90;;;;;;5102454;28;20192;-40
2022/11/22 06:16:43;;;;;;;5.33;1.80;;;7.40;99.90;;;;;;5099550;28;20650;-38
2022/11/22 06:19:09;;;;;;;12.63;1.90;;;7.30;99.90;;;;;;5111517;28;20180;-38
2022/11/22 06:21:35;;;;;;;3.90;1.53;;;7.10;99.90;;;;;;5111906;28;20278;-40
2022/11/22 06:24:01;;;;;;;4.80;1.97;;;7.30;99.90;;;;;;5111411;27;20195;-40
2022/11/22 06:26:26;;;;;;;8.67;2.30;;;7.30;99.90;;;;;;5111477;28;20249;-39
2022/11/22 06:28:53;;;;;;;5.93;2.50;;;7.20;99.90;;;;;;5111137;28;20195;-40
2022/11/22 06:31:28;;;;;;;5.73;2.43;;;7.30;99.90;;;;;;5110780;28;20171;-39
2022/11/22 06:33:56;;;;;;;4.50;2.07;;;7.20;99.90;;;;;;5110759;28;20424;-40
2022/11/22 06:36:27;;;;;;;7.40;2.13;;;7.40;99.90;;;;;;5111195;28;20568;-40
2022/11/22 06:38:53;;;;;;;10.77;2.40;;;7.20;99.90;;;;;;5111361;28;20772;-41
2022/11/22 06:41:25;;;;;;;6.73;1.97;;;7.10;99.90;;;;;;5111101;28;20505;-40
2022/11/22 06:43:53;;;;;;;5.97;2.00;;;7.20;99.90;;;;;;5110593;28;20190;-38
2022/11/22 06:46:20;;;;;;;4.70;1.70;;;7.40;99.90;;;;;;5105344;28;20457;-37
2022/11/22 06:48:47;;;;;;;8.30;2.63;;;7.10;99.90;;;;;;5109242;28;20493;-39
2022/11/22 06:51:24;;;;;;;6.97;2.70;;;7.10;99.90;;;;;;5105731;28;20422;-39
2022/11/22 06:53:51;;;;;;;4.60;1.90;;;7.10;99.90;;;;;;5111137;28;20409;-38
2022/11/22 06:56:22;;;;;;;5.63;1.80;;;7.20;99.90;;;;;;5110375;28;20410;-38
2022/11/22 06:58:49;;;;;;;5.03;1.80;;;7.10;99.90;;;;;;5110590;28;20975;-37
2022/11/22 07:01:24;;;;;;;9.60;2.17;;;7.00;99.90;;;;;;5110707;28;20405;-40
2022/11/22 07:03:50;;;;;;;3.90;1.70;;;7.00;99.90;;;;;;5110717;28;20415;-40
2022/11/22 07:06:17;;;;;;;7.53;2.20;;;7.00;99.90;;;;;;5110309;28;20727;-41
2022/11/22 07:08:44;;;;;;;6.10;2.70;;;6.90;99.90;;;;;;5110176;28;20413;-38
2022/11/22 07:11:16;;;;;;;7.23;2.00;;;6.90;99.90;;;;;;5109104;28;20538;-41
2022/11/22 07:13:42;;;;;;;6.10;2.40;;;7.10;99.90;;;;;;5108003;27;20451;-40
2022/11/22 07:16:11;;;;;;;8.70;2.30;;;6.90;99.90;;;;;;5100090;28;20578;-41
2022/11/22 07:18:36;;;;;;;6.50;2.53;;;6.80;99.90;;;;;;5104697;28;20474;-39
2022/11/22 07:21:08;;;;;;;7.47;2.13;;;7.00;99.90;;;;;;5108734;28;21041;-39
2022/11/22 07:23:33;;;;;;;11.60;2.60;;;6.70;99.90;;;;;;5108257;27;20278;-38
2022/11/22 07:25:59;;;;;;;6.10;2.70;;;6.90;99.90;;;;;;5101616;27;20500;-40
2022/11/22 07:28:25;;;;;;;7.60;2.10;;;6.70;99.90;;;;;;5097578;28;20185;-40
2022/11/22 07:30:51;;;;;;;9.30;1.67;;;6.90;99.90;;;;;;5089884;28;20187;-39
2022/11/22 07:33:17;;;;;;;7.20;2.10;;;6.80;99.90;;;;;;5087673;28;20418;-40
2022/11/22 07:35:43;;;;;;;6.03;2.10;;;7.00;99.90;;;;;;5088394;28;20181;-38
2022/11/22 07:38:08;;;;;;;10.20;2.50;;;6.70;99.90;;;;;;5089528;28;20188;-39
2022/11/22 07:40:34;;;;;;;7.90;1.90;;;6.90;99.90;;;;;;5089595;28;20770;-38
2022/11/22 07:43:00;;;;;;;7.43;2.03;;;6.90;99.90;;;;;;5094429;28;20184;-40
2022/11/22 07:45:25;;;;;;;10.17;2.30;;;6.80;99.90;;;;;;5095301;28;20252;-39
2022/11/22 07:47:51;;;;;;;4.13;1.87;;;6.70;99.90;;;;;;5089287;28;20309;-41
2022/11/22 07:50:17;;;;;;;7.87;2.43;;;6.70;99.90;;;;;;5087787;28;20188;-40
2022/11/22 07:52:42;;;;;;;5.60;2.47;;;7.00;99.90;;;;;;5089300;28;20207;-41
2022/11/22 07:55:08;;;;;;;8.30;2.20;;;7.10;99.90;;;;;;5099747;28;20525;-38
2022/11/22 07:57:34;;;;;;;6.80;2.40;;;7.00;99.90;;;;;;5109705;28;20207;-38
2022/11/22 08:00:00;;;;;;;4.67;2.03;;;7.00;99.90;;;;;;5109269;28;20426;-37
2022/11/22 08:02:26;;;;;;;9.33;2.70;;;7.30;99.90;;;;;;5109517;28;20309;-40
2022/11/22 08:04:52;;;;;;;5.63;2.13;;;7.20;99.90;;;;;;5109344;28;20504;-41
2022/11/22 08:07:18;;;;;;;4.57;1.87;;;7.20;99.90;;;;;;5106053;28;20217;-38
2022/11/22 08:09:44;;;;;;;10.10;2.43;;;7.40;99.90;;;;;;5107703;28;20567;-39
2022/11/22 08:12:09;;;;;;;6.43;2.50;;;7.40;99.90;;;;;;5109361;28;20183;-40
2022/11/22 08:14:35;;;;;;;8.73;2.53;;;7.40;99.90;;;;;;5107938;28;20176;-40
2022/11/22 08:17:02;;;;;;;6.37;2.00;;;7.70;99.90;;;;;;5106680;28;20180;-38
2022/11/22 08:19:29;;;;;;;4.77;2.00;;;7.70;99.90;;;;;;5101800;28;20430;-41
2022/11/22 08:21:55;;;;;;;5.40;2.10;;;7.60;99.90;;;;;;5109574;28;20417;-41
2022/11/22 08:24:21;;;;;;;4.60;2.50;;;7.60;99.90;;;;;;5107529;28;21006;-40
2022/11/22 08:26:47;;;;;;;7.90;2.37;;;7.80;99.90;;;;;;5109384;28;20208;-40
2022/11/22 08:29:12;;;;;;;8.87;2.20;;;7.90;99.90;;;;;;5108337;28;20184;-39
2022/11/22 08:31:38;;;;;;;5.73;2.17;;;8.00;99.90;;;;;;5092252;28;20192;-40
2022/11/22 08:34:05;;;;;;;6.00;2.20;;;8.20;99.90;;;;;;5087927;28;20575;-40
2022/11/22 08:36:31;;;;;;;5.67;2.10;;;8.30;99.90;;;;;;5088606;28;20418;-40
2022/11/22 08:38:57;;;;;;;5.83;2.00;;;8.50;99.90;;;;;;5092649;28;20429;-39
2022/11/22 08:41:24;;;;;;;5.00;1.67;;;8.70;99.90;;;;;;5107344;28;20417;-39
2022/11/22 08:43:51;;;;;;;6.33;2.80;;;8.90;99.90;;;;;;5108620;28;20437;-41
2022/11/22 08:46:18;;;;;;;5.50;1.60;;;8.90;99.90;;;;;;5108656;28;20859;-40
2022/11/22 08:48:44;;;;;;;11.37;2.10;;;8.90;99.90;;;;;;5108263;28;20488;-40
2022/11/22 08:51:11;;;;;;;5.00;1.83;;;9.20;99.90;;;;;;5108961;28;20453;-41
2022/11/22 08:53:39;;;;;;;7.63;2.23;;;9.30;99.90;;;;;;5108500;28;20405;-41
2022/11/22 08:56:08;;;;;;;6.07;2.20;;;9.50;99.90;;;;;;5107237;28;20413;-42
2022/11/22 08:58:34;;;;;;;5.70;2.30;;;9.60;99.90;;;;;;5108326;28;20472;-40
2022/11/22 09:01:12;;;;;;;4.80;1.80;;;9.70;99.90;;;;;;5108635;28;20405;-41
2022/11/22 09:03:39;;;;;;;7.10;1.87;;;9.70;99.90;;;;;;5107209;28;20486;-38
2022/11/22 09:06:13;;;;;;;6.17;2.00;;;9.80;99.90;;;;;;5108290;28;20485;-40
2022/11/22 09:08:39;;;;;;;4.60;2.10;;;9.90;99.90;;;;;;5108394;28;20510;-39
2022/11/22 09:11:08;;;;;;;4.00;2.03;;;10.00;99.90;;;;;;5108444;28;20923;-40
2022/11/22 09:13:34;;;;;;;7.13;1.90;;;10.10;99.90;;;;;;5108407;28;20405;-41
2022/11/22 09:16:02;;;;;;;3.73;1.53;;;10.10;99.90;;;;;;5108464;28;20441;-39
2022/11/22 09:18:27;;;;;;;4.57;1.67;;;10.00;99.90;;;;;;5108288;28;20414;-39
2022/11/22 09:21:07;;;;;;;4.70;1.97;;;10.10;99.90;;;;;;5108448;28;20426;-39
2022/11/22 09:23:34;;;;;;;7.00;2.87;;;10.10;99.90;;;;;;5108245;28;20262;-41
2022/11/22 09:26:04;;;;;;;3.00;1.60;;;10.10;99.90;;;;;;5107027;28;20841;-36
2022/11/22 09:28:29;;;;;;;4.13;1.40;;;10.20;99.90;;;;;;5107931;28;20432;-41
2022/11/22 09:31:06;;;;;;;4.70;2.33;;;10.30;99.90;;;;;;5108205;28;20417;-38
2022/11/22 09:33:34;;;;;;;4.03;1.50;;;10.30;99.90;;;;;;5107917;28;20627;-40
2022/11/22 09:36:06;;;;;;;4.10;1.20;;;10.40;99.90;;;;;;5108350;28;20509;-40
2022/11/22 09:38:33;;;;;;;4.90;1.50;;;10.50;99.90;;;;;;5108540;28;20883;-39
2022/11/22 09:41:01;;;;;;;2.90;1.73;;;10.50;99.90;;;;;;5106747;28;20985;-36
2022/11/22 09:43:41;;;;;;;6.10;1.93;;;10.50;99.90;;;;;;5107753;28;20827;-41
2022/11/22 09:46:22;;;;;;;2.80;1.43;;;10.40;99.90;;;;;;5108162;28;20405;-37
2022/11/22 09:49:10;;;;;;;4.60;1.60;;;10.50;99.90;;;;;;5108318;28;20699;-38
2022/11/22 09:51:43;;;;;;;2.97;1.43;;;10.60;99.90;;;;;;5109970;28;20417;-39
2022/11/22 09:54:21;;;;;;;8.00;2.40;;;10.60;99.90;;;;;;5112078;27;20815;-40
2022/11/22 09:56:50;;;;;;;5.10;1.60;;;10.70;99.90;;;;;;5112002;28;20448;-41
2022/11/22 09:59:30;;;;;;;2.27;1.20;;;10.80;99.90;;;;;;5111702;28;20725;-40
2022/11/22 10:02:06;;;;;;;4.47;1.50;;;10.80;99.90;;;;;;5111835;28;20774;-39
2022/11/22 10:04:38;;;;;;;5.67;1.30;;;10.70;99.90;;;;;;5111799;28;20514;-38
2022/11/22 10:07:25;;;;;;;4.40;1.50;;;10.60;99.90;;;;;;5111929;28;20476;-40
2022/11/22 10:10:06;;;;;;;3.10;1.47;;;10.50;99.90;;;;;;5111455;28;20496;-38
2022/11/22 10:12:44;;;;;;;5.33;1.53;;;10.40;99.90;;;;;;5111792;28;20870;-40
2022/11/22 10:15:26;;;;;;;4.53;1.50;;;10.30;99.90;;;;;;5110390;28;20420;-39
2022/11/22 10:17:55;;;;;;;3.87;1.30;;;10.20;99.90;;;;;;5111545;28;20421;-39
2022/11/22 10:20:23;;;;;;;5.73;1.60;;;10.00;99.90;;;;;;5090859;28;20426;-39
2022/11/22 10:22:50;;;;;;;3.40;1.50;;;9.80;99.90;;;;;;5090947;28;20421;-37
2022/11/22 10:25:21;;;;;;;6.80;1.50;;;9.60;99.90;;;;;;5121830;27;20427;-40
2022/11/22 10:27:57;;;;;;;6.40;1.70;;;9.50;99.90;;;;;;5132196;27;20460;-37
2022/11/22 10:30:24;;;;;;;6.43;1.57;;;9.30;99.90;;;;;;5131741;27;20439;-38
2022/11/22 10:32:56;;;;;;;5.87;1.83;;;9.30;99.90;;;;;;5131089;27;20420;-37
2022/11/22 10:35:21;;;;;;;5.17;1.53;;;9.10;99.90;;;;;;5132399;27;20408;-40
2022/11/22 10:38:19;;;;;;;6.80;1.63;;;9.10;99.90;;;;;;5132162;27;20421;-41
2022/11/22 10:41:03;;;;;;;3.70;1.53;;;9.20;99.90;;;;;;5116611;27;20183;-38
2022/11/22 10:43:41;;;;;;;4.00;1.73;;;8.90;99.90;;;;;;5131141;27;20405;-40
2022/11/22 10:46:44;;;;;;;2.77;1.40;;;8.80;99.90;;;;;;5131676;27;20412;-40
2022/11/22 10:49:37;;;;;;;3.00;1.43;;;8.90;99.90;;;;;;5131250;27;20419;-38
2022/11/22 10:52:13;;;;;;;5.90;1.90;;;8.60;99.90;;;;;;5130272;27;20477;-39
2022/11/22 10:55:12;;;;;;;5.77;1.60;;;8.70;99.90;;;;;;5129744;27;20408;-37
2022/11/22 10:57:43;;;;;;;3.30;1.20;;;8.70;99.90;;;;;;5131345;27;20907;-41
2022/11/22 11:00:17;;;;;;;6.03;1.53;;;8.80;99.90;;;;;;5131219;27;20420;-34
2022/11/22 11:03:04;;;;;;;6.07;1.40;;;8.80;99.90;;;;;;5130541;27;20408;-40
2022/11/22 11:05:53;;;;;;;8.23;1.97;;;8.60;99.90;;;;;;5131316;27;20432;-37
2022/11/22 11:08:38;;;;;;;5.00;1.40;;;8.70;99.90;;;;;;5130511;27;20456;-35
2022/11/22 11:11:03;;;;;;;3.00;1.50;;;8.70;99.90;;;;;;5131180;27;20407;-40
2022/11/22 11:13:59;;;;;;;4.40;2.00;;;8.60;99.90;;;;;;5131103;27;20413;-40
2022/11/22 11:16:29;;;;;;;3.03;1.63;;;8.60;99.90;;;;;;5128900;27;20176;-40
2022/11/22 11:19:19;;;;;;;1.90;1.27;;;8.60;99.90;;;;;;5121936;27;21003;-39
2022/11/22 11:21:47;;;;;;;4.13;1.97;;;8.60;99.90;;;;;;5110329;28;20417;-37
2022/11/22 11:24:16;;;;;;;3.47;2.07;;;8.70;99.90;;;;;;5116690;27;20431;-36
2022/11/22 11:26:49;;;;;;;4.83;1.77;;;8.60;99.90;;;;;;5130737;27;20464;-42
2022/11/22 11:29:18;;;;;;;6.80;1.50;;;8.70;99.90;;;;;;5130340;27;20405;-40
2022/11/22 11:31:49;;;;;;;4.50;1.30;;;8.60;99.90;;;;;;5130606;27;20404;-41
2022/11/22 11:34:27;;;;;;;4.43;1.63;;;8.70;99.90;;;;;;5130142;27;20409;-37
2022/11/22 11:36:56;;;;;;;4.10;2.03;;;8.70;99.90;;;;;;5130575;27;20771;-34
2022/11/22 11:39:26;;;;;;;8.20;1.40;;;8.90;99.90;;;;;;5130458;27;20424;-41
2022/11/22 11:41:52;;;;;;;2.33;1.17;;;8.90;99.90;;;;;;5130447;27;20767;-39
2022/11/22 11:44:30;;;;;;;3.30;1.40;;;8.90;99.90;;;;;;5130448;27;20810;-38
2022/11/22 11:46:57;;;;;;;4.40;1.77;;;8.80;99.90;;;;;;5130335;27;20472;-39
2022/11/22 11:49:25;;;;;;;2.87;1.20;;;9.10;99.90;;;;;;5128828;27;20473;-38
2022/11/22 11:51:54;;;;;;;3.03;1.10;;;9.10;99.90;;;;;;5130365;27;20416;-38
2022/11/22 11:54:28;;;;;;;2.97;1.23;;;9.10;99.90;;;;;;5130287;27;20466;-38
2022/11/22 11:57:03;;;;;;;5.30;1.60;;;9.40;99.90;;;;;;5130604;27;20424;-41
2022/11/22 11:59:35;;;;;;;3.20;1.20;;;10.10;99.90;;;;;;5129867;27;20435;-41
2022/11/22 12:02:23;;;;;;;2.50;0.80;;;10.60;99.90;;;;;;5130165;27;20424;-40
2022/11/22 12:04:58;;;;;;;2.30;0.90;;;10.70;99.90;;;;;;5129971;27;20473;-38
2022/11/22 12:07:26;;;;;;;3.77;0.90;;;10.60;99.90;;;;;;5130118;27;20463;-40
2022/11/22 12:09:54;;;;;;;2.33;1.10;;;10.30;99.90;;;;;;5128371;27;20415;-38
2022/11/22 12:12:48;;;;;;;2.73;0.90;;;10.10;99.90;;;;;;5128716;27;20431;-40
2022/11/22 12:15:45;;;;;;;2.20;0.73;;;9.90;99.90;;;;;;5129014;27;20412;-40
2022/11/22 12:18:32;;;;;;;2.40;0.97;;;9.70;99.90;;;;;;5127459;27;20424;-40
2022/11/22 12:21:02;;;;;;;2.93;1.50;;;9.60;99.90;;;;;;5109206;28;20486;-41
2022/11/22 12:23:44;;;;;;;2.67;0.70;;;9.50;99.90;;;;;;5090457;28;20817;-40
2022/11/22 12:26:09;;;;;;;2.63;1.07;;;9.50;99.90;;;;;;5128527;27;20803;-40
2022/11/22 12:28:37;;;;;;;2.30;0.70;;;9.50;99.90;;;;;;5129465;27;20419;-37
2022/11/22 12:31:18;;;;;;;2.93;0.80;;;9.40;99.90;;;;;;5129754;27;20233;-40
2022/11/22 12:33:51;;;;;;;1.13;0.67;;;9.40;99.90;;;;;;5128258;27;20419;-36
2022/11/22 12:36:42;;;;;;;3.00;0.80;;;9.40;99.90;;;;;;5129858;27;20416;-38
2022/11/22 12:39:13;;;;;;;3.50;0.90;;;9.50;99.90;;;;;;5118019;27;20457;-41
2022/11/22 12:41:41;;;;;;;3.73;0.70;;;9.50;99.90;;;;;;5099157;28;20424;-38
2022/11/22 12:44:14;;;;;;;4.20;1.20;;;9.50;99.90;;;;;;5089617;28;20423;-40
2022/11/22 12:46:45;;;;;;;1.67;0.77;;;9.50;99.90;;;;;;5087005;28;20546;-38
2022/11/22 12:49:26;;;;;;;2.27;0.80;;;9.50;99.90;;;;;;5102059;28;20483;-40
2022/11/22 12:51:56;;;;;;;1.93;0.90;;;9.50;99.90;;;;;;5105561;28;20492;-41
2022/11/22 12:54:44;;;;;;;1.90;0.97;;;9.50;99.90;;;;;;5107858;28;20425;-36
2022/11/22 12:57:16;;;;;;;2.00;0.77;;;9.40;99.90;;;;;;5108142;28;20418;-38
2022/11/22 13:00:11;;;;;;;3.80;0.83;;;9.40;99.90;;;;;;5108019;28;20581;-40
2022/11/22 13:02:51;;;;;;;2.37;0.70;;;9.40;99.90;;;;;;5107669;28;20484;-39
2022/11/22 13:05:45;;;;;;;1.70;0.90;;;9.40;99.90;;;;;;5108436;28;20809;-34
2022/11/22 13:08:35;;;;;;;1.73;0.70;;;9.40;99.90;;;;;;5107993;28;20548;-37
2022/11/22 13:11:16;;;;;;;6.30;1.20;;;9.30;99.90;;;;;;5108742;28;20416;-39
2022/11/22 13:13:46;;;;;;;1.50;0.73;;;9.30;99.90;;;;;;5108091;28;20401;-39
2022/11/22 13:16:13;;;;;;;3.20;0.90;;;9.30;99.90;;;;;;5108625;28;20516;-39
2022/11/22 13:18:50;;;;;;;3.40;0.90;;;9.20;99.90;;;;;;5107861;28;20421;-38
2022/11/22 13:21:47;;;;;;;1.57;1.10;;;9.40;99.90;;;;;;5108920;28;20793;-36
2022/11/22 13:24:45;;;;;;;4.40;1.17;;;9.20;99.90;;;;;;5107468;28;20429;-39
2022/11/22 13:27:17;;;;;;;1.60;0.90;;;9.10;99.90;;;;;;5104651;28;20547;-41
2022/11/22 13:29:43;;;;;;;4.03;1.60;;;9.20;99.90;;;;;;5112520;28;20416;-40